Time;durP1;ratioP1;P1;durP2;ratioP2;P2;SDS_P1;SDS_P2;PMS_P1;PMS_P2;Temp;Humidity;BMP_temperature;BMP_pressure;BME280_temperature;BME280_humidity;BME280_pressure;Samples;Min_cycle;Max_cycle;Signal;HPM_P1;HPM_P2
2024/01/15 00:02:16;;;;;;;3.55;1.90;;;;;;;0.63;100.00;100399.94;5079185;28;20424;-80
2024/01/15 00:04:42;;;;;;;3.25;2.08;;;;;;;0.61;100.00;100396.44;5084361;28;20471;-80
2024/01/15 00:07:08;;;;;;;4.30;2.05;;;;;;;0.59;100.00;100394.69;5074775;28;20553;-80
2024/01/15 00:09:34;;;;;;;4.97;2.20;;;;;;;0.56;100.00;100387.72;5083865;28;20073;-80
2024/01/15 00:12:00;;;;;;;5.20;2.53;;;;;;;0.54;100.00;100397.22;5088071;28;20040;-80
2024/01/15 00:14:26;;;;;;;6.15;2.58;;;;;;;0.54;100.00;100388.53;5092777;28;20471;-80
2024/01/15 00:16:54;;;;;;;6.80;2.60;;;;;;;0.48;100.00;100386.75;5093529;28;20024;-80
2024/01/15 00:19:23;;;;;;;5.13;2.35;;;;;;;0.46;100.00;100378.03;5078598;28;20364;-81
2024/01/15 00:21:50;;;;;;;7.53;2.92;;;;;;;0.45;100.00;100372.84;5092030;28;20059;-81
2024/01/15 00:24:15;;;;;;;5.35;2.50;;;;;;;0.40;100.00;100371.03;5061957;28;20048;-80
2024/01/15 00:26:41;;;;;;;6.20;3.20;;;;;;;0.39;100.00;100371.00;5088075;28;20020;-80
2024/01/15 00:29:07;;;;;;;6.15;2.50;;;;;;;0.36;100.00;100370.97;5075713;28;20066;-81
2024/01/15 00:31:33;;;;;;;6.47;2.92;;;;;;;0.33;100.00;100370.94;5079076;28;20055;-81
2024/01/15 00:33:59;;;;;;;4.43;2.38;;;;;;;0.33;100.00;100366.59;5050264;28;20472;-80
2024/01/15 00:36:25;;;;;;;4.22;2.17;;;;;;;0.31;100.00;100368.31;5081088;28;20059;-80
2024/01/15 00:38:51;;;;;;;7.07;2.40;;;;;;;0.26;100.00;100363.91;5077238;28;20087;-80
2024/01/15 00:41:18;;;;;;;4.80;2.17;;;;;;;0.24;100.00;100358.69;5081951;28;20070;-80
2024/01/15 00:43:45;;;;;;;4.00;1.85;;;;;;;0.25;100.00;100357.84;5093133;28;20472;-80
2024/01/15 00:46:10;;;;;;;4.32;2.38;;;;;;;0.21;100.00;100349.09;5087167;28;20036;-80
2024/01/15 00:48:36;;;;;;;11.23;2.70;;;;;;;0.18;100.00;100345.59;5085083;28;20055;-80
2024/01/15 00:51:01;;;;;;;10.02;2.40;;;;;;;0.16;100.00;100353.38;5082753;28;20082;-80
2024/01/15 00:53:27;;;;;;;7.65;2.38;;;;;;;0.12;100.00;100345.50;5086967;28;20044;-79
2024/01/15 00:55:52;;;;;;;9.80;2.15;;;;;;;0.10;100.00;100347.19;5073751;28;20109;-80
2024/01/15 00:58:19;;;;;;;9.07;2.47;;;;;;;0.10;100.00;100336.78;5080287;28;20035;-81
2024/01/15 01:00:44;;;;;;;4.60;1.98;;;;;;;0.07;100.00;100340.22;5091574;28;20126;-80
2024/01/15 01:03:09;;;;;;;5.88;2.13;;;;;;;0.07;100.00;100336.75;5092234;28;20119;-80
2024/01/15 01:05:35;;;;;;;5.55;2.03;;;;;;;0.02;100.00;100341.91;5077087;28;20040;-80
2024/01/15 01:08:01;;;;;;;5.20;2.25;;;;;;;0.01;100.00;100339.31;5091805;28;20036;-80
2024/01/15 01:10:27;;;;;;;8.70;2.45;;;;;;;-0.05;100.00;100340.06;5091266;28;20085;-81
2024/01/15 01:12:53;;;;;;;8.85;3.20;;;;;;;-0.06;100.00;100334.00;5074164;28;20402;-81
2024/01/15 01:15:18;;;;;;;10.88;3.03;;;;;;;-0.08;100.00;100340.91;5087286;28;20036;-81
2024/01/15 01:17:43;;;;;;;12.70;2.90;;;;;;;-0.09;100.00;100335.69;5078002;28;20047;-80
2024/01/15 01:20:10;;;;;;;8.35;2.50;;;;;;;-0.12;100.00;100333.94;5069514;28;20421;-80
2024/01/15 01:22:36;;;;;;;6.07;2.28;;;;;;;-0.13;100.00;100332.16;5089787;28;20032;-79
2024/01/15 01:25:02;;;;;;;9.27;2.35;;;;;;;-0.14;100.00;100325.22;5074899;28;20063;-80
2024/01/15 01:27:28;;;;;;;5.68;2.30;;;;;;;-0.15;100.00;100331.25;5077455;28;20068;-80
2024/01/15 01:29:54;;;;;;;5.28;2.30;;;;;;;-0.18;100.00;100331.22;5071996;28;20734;-80
2024/01/15 01:32:19;;;;;;;9.15;2.88;;;;;;;-0.18;100.00;100335.56;5081791;28;20036;-80
2024/01/15 01:34:45;;;;;;;8.25;2.47;;;;;;;-0.19;100.00;100339.03;5072495;28;20067;-80
2024/01/15 01:37:14;;;;;;;6.95;2.67;;;;;;;-0.20;100.00;100338.13;5058056;28;20052;-80
2024/01/15 01:39:40;;;;;;;5.85;1.98;;;;;;;-0.21;100.00;100333.81;5084919;28;20032;-80
2024/01/15 01:42:06;;;;;;;7.80;1.75;;;;;;;-0.23;100.00;100336.38;5057286;28;20044;-80
2024/01/15 01:44:31;;;;;;;7.75;2.70;;;;;;;-0.26;100.00;100340.66;5082421;28;20059;-81
2024/01/15 01:47:01;;;;;;;4.93;2.15;;;;;;;-0.30;100.00;100339.72;5070431;28;20372;-81
2024/01/15 01:49:28;;;;;;;5.93;2.40;;;;;;;-0.32;100.00;100344.06;5080681;28;20036;-80
2024/01/15 01:51:57;;;;;;;9.10;2.33;;;;;;;-0.33;100.00;100346.63;5083747;28;20024;-80
2024/01/15 01:54:23;;;;;;;5.18;2.05;;;;;;;-0.37;100.00;100337.94;5083796;28;20542;-80
2024/01/15 01:56:51;;;;;;;9.75;2.28;;;;;;;-0.35;100.00;100341.41;5087734;28;20042;-81
2024/01/15 01:59:17;;;;;;;5.80;2.33;;;;;;;-0.35;100.00;100336.19;5071295;28;20040;-81
2024/01/15 02:01:44;;;;;;;6.72;2.10;;;;;;;-0.34;100.00;100343.16;5090518;28;20040;-81
2024/01/15 02:04:10;;;;;;;8.82;2.38;;;;;;;-0.34;100.00;100340.56;5074019;28;20064;-81
2024/01/15 02:06:36;;;;;;;7.88;2.10;;;;;;;-0.32;100.00;100333.66;5083061;28;20441;-81
2024/01/15 02:09:01;;;;;;;9.35;2.38;;;;;;;-0.32;100.00;100336.25;5085415;28;20115;-81
2024/01/15 02:11:27;;;;;;;6.03;2.08;;;;;;;-0.32;100.00;100332.75;5091844;28;20067;-81
2024/01/15 02:13:52;;;;;;;13.35;3.20;;;;;;;-0.32;100.00;100330.16;5052222;28;20086;-81
2024/01/15 02:16:18;;;;;;;5.00;2.30;;;;;;;-0.35;100.00;100323.19;5089760;28;20401;-81
2024/01/15 02:18:45;;;;;;;9.45;2.47;;;;;;;-0.36;100.00;100326.66;5072423;28;20424;-81
2024/01/15 02:21:11;;;;;;;9.13;2.33;;;;;;;-0.36;100.00;100320.59;5088768;28;20043;-81
2024/01/15 02:23:37;;;;;;;5.25;1.80;;;;;;;-0.37;100.00;100322.31;5080570;28;20494;-81
2024/01/15 02:26:04;;;;;;;7.82;1.80;;;;;;;-0.40;100.00;100322.25;5071195;28;20028;-81
2024/01/15 02:28:30;;;;;;;12.90;2.53;;;;;;;-0.38;100.00;100323.16;5047324;28;20537;-81
2024/01/15 02:30:55;;;;;;;8.50;2.13;;;;;;;-0.36;100.00;100316.25;5077364;28;20048;-82
2024/01/15 02:33:21;;;;;;;5.95;1.83;;;;;;;-0.41;100.00;100317.03;5075156;28;20036;-81
2024/01/15 02:35:49;;;;;;;9.80;2.28;;;;;;;-0.39;100.00;100323.16;5076572;28;20044;-83
2024/01/15 02:38:15;;;;;;;8.73;2.38;;;;;;;-0.41;100.00;100319.66;5077671;28;20040;-84
2024/01/15 02:40:41;;;;;;;12.38;2.50;;;;;;;-0.40;100.00;100322.25;5075107;28;20119;-81
2024/01/15 02:43:06;;;;;;;6.82;1.70;;;;;;;-0.39;100.00;100320.53;5075169;28;20456;-81
2024/01/15 02:45:32;;;;;;;10.20;2.28;;;;;;;-0.39;100.00;100326.63;5076584;28;20447;-81
2024/01/15 02:47:57;;;;;;;7.70;2.15;;;;;;;-0.40;100.00;100316.19;5083962;28;20075;-81
2024/01/15 02:50:23;;;;;;;13.82;2.10;;;;;;;-0.40;100.00;100319.66;5057144;28;20032;-81
2024/01/15 02:52:50;;;;;;;10.40;1.98;;;;;;;-0.40;100.00;100318.78;5057123;28;20050;-81
2024/01/15 02:55:16;;;;;;;7.93;1.90;;;;;;;-0.44;100.00;100325.69;5057293;28;20127;-81
2024/01/15 02:57:41;;;;;;;5.95;1.70;;;;;;;-0.43;100.00;100323.09;5075041;28;20448;-81
2024/01/15 03:00:07;;;;;;;7.40;2.00;;;;;;;-0.44;100.00;100325.69;5074861;28;20040;-82
2024/01/15 03:02:37;;;;;;;8.93;2.22;;;;;;;-0.47;100.00;100329.13;5094837;28;20065;-81
2024/01/15 03:05:02;;;;;;;9.80;2.63;;;;;;;-0.45;100.00;100331.72;5082891;28;20036;-81
2024/01/15 03:07:28;;;;;;;9.07;2.65;;;;;;;-0.47;100.00;100325.63;5074729;28;20113;-81
2024/01/15 03:09:53;;;;;;;9.30;2.30;;;;;;;-0.46;100.00;100324.78;5074984;28;20040;-82
2024/01/15 03:12:19;;;;;;;7.88;2.28;;;;;;;-0.51;100.00;100323.84;5078670;28;20037;-83
2024/01/15 03:14:44;;;;;;;9.80;1.75;;;;;;;-0.49;100.00;100319.53;5079144;28;20666;-81
2024/01/15 03:17:11;;;;;;;7.40;1.70;;;;;;;-0.51;100.00;100313.44;5094817;28;20036;-80
2024/01/15 03:19:36;;;;;;;11.60;1.80;;;;;;;-0.53;100.00;100313.41;5056963;28;20036;-82
2024/01/15 03:22:03;;;;;;;13.38;2.22;;;;;;;-0.51;100.00;100322.09;5056449;28;20040;-82
2024/01/15 03:24:29;;;;;;;5.40;1.58;;;;;;;-0.53;100.00;100317.72;5080418;28;20052;-81
2024/01/15 03:26:55;;;;;;;3.70;1.60;;;;;;;-0.51;100.00;100322.09;5083511;28;20032;-82
2024/01/15 03:29:21;;;;;;;8.98;1.90;;;;;;;-0.53;100.00;100316.00;5056406;28;20041;-81
2024/01/15 03:31:47;;;;;;;12.63;1.77;;;;;;;-0.55;100.00;100317.69;5074431;28;20476;-83
2024/01/15 03:34:12;;;;;;;9.85;1.88;;;;;;;-0.54;100.00;100313.41;5070350;28;20074;-82
2024/01/15 03:36:38;;;;;;;8.82;1.98;;;;;;;-0.54;100.00;100314.25;5079193;28;20474;-82
2024/01/15 03:39:03;;;;;;;6.88;2.10;;;;;;;-0.55;100.00;100307.28;5074491;28;20064;-82
2024/01/15 03:41:29;;;;;;;7.60;1.90;;;;;;;-0.55;100.00;100322.91;5060473;28;20040;-82
2024/01/15 03:43:54;;;;;;;8.45;2.00;;;;;;;-0.54;100.00;100303.88;5076366;28;20036;-82
2024/01/15 03:46:19;;;;;;;6.20;2.03;;;;;;;-0.58;100.00;100307.25;5076775;28;20494;-82
2024/01/15 03:48:45;;;;;;;5.28;1.50;;;;;;;-0.55;100.00;100309.03;5074182;28;20434;-83
2024/01/15 03:51:10;;;;;;;4.93;1.58;;;;;;;-0.55;100.00;100311.63;5055993;28;20446;-82
2024/01/15 03:53:37;;;;;;;9.68;1.80;;;;;;;-0.55;100.00;100309.91;5081119;28;20114;-82
2024/01/15 03:56:03;;;;;;;4.25;1.77;;;;;;;-0.55;100.00;100307.28;5074088;28;20070;-82
2024/01/15 03:58:28;;;;;;;10.35;1.90;;;;;;;-0.54;100.00;100303.88;5092376;28;20043;-81
2024/01/15 04:00:54;;;;;;;12.85;2.00;;;;;;;-0.51;100.00;100287.44;5064634;28;20047;-82
2024/01/15 04:03:19;;;;;;;11.77;2.00;;;;;;;-0.47;100.00;100294.41;5058936;28;20072;-81
2024/01/15 04:05:45;;;;;;;13.95;2.25;;;;;;;-0.47;100.00;100291.78;5075507;28;20036;-82
2024/01/15 04:08:10;;;;;;;9.57;2.10;;;;;;;-0.43;100.00;100291.00;5045291;28;20470;-82
2024/01/15 04:10:39;;;;;;;10.27;1.92;;;;;;;-0.40;100.00;100290.16;5073228;28;20124;-82
2024/01/15 04:13:05;;;;;;;10.70;2.05;;;;;;;-0.39;100.00;100279.78;5068818;28;20493;-81
2024/01/15 04:15:30;;;;;;;9.75;2.08;;;;;;;-0.37;100.00;100275.50;5049322;28;20041;-81
2024/01/15 04:17:56;;;;;;;10.35;2.08;;;;;;;-0.36;100.00;100269.41;5080174;28;20108;-85
2024/01/15 04:20:21;;;;;;;12.60;2.28;;;;;;;-0.30;100.00;100273.81;5068775;28;20039;-85
2024/01/15 04:22:47;;;;;;;8.82;2.25;;;;;;;-0.28;100.00;100279.91;5073323;28;20494;-81
2024/01/15 04:25:12;;;;;;;11.52;2.30;;;;;;;-0.30;100.00;100273.81;5060041;28;20036;-83
2024/01/15 04:27:38;;;;;;;14.27;2.67;;;;;;;-0.28;100.00;100272.97;5075380;28;20039;-86
2024/01/15 04:30:04;;;;;;;11.00;2.03;;;;;;;-0.23;100.00;100280.84;5091715;28;20414;-81
2024/01/15 04:32:35;;;;;;;8.77;2.28;;;;;;;-0.23;100.00;100270.44;5091335;28;20039;-81
2024/01/15 04:35:00;;;;;;;8.70;2.67;;;;;;;-0.19;100.00;100273.97;5031429;28;20037;-81
2024/01/15 04:37:26;;;;;;;12.07;2.78;;;;;;;-0.22;100.00;100267.88;5089878;28;20047;-80
2024/01/15 04:39:54;;;;;;;13.52;2.72;;;;;;;-0.19;100.00;100263.56;5049376;28;20044;-80
2024/01/15 04:42:20;;;;;;;9.38;2.60;;;;;;;-0.17;100.00;100259.22;5083380;28;20031;-79
2024/01/15 04:44:46;;;;;;;5.63;2.10;;;;;;;-0.18;100.00;100255.75;5085513;28;20035;-80
2024/01/15 04:47:11;;;;;;;10.02;2.20;;;;;;;-0.20;100.00;100257.47;5079694;28;20084;-81
2024/01/15 04:49:37;;;;;;;4.07;1.70;;;;;;;-0.17;100.00;100257.53;5078929;28;20451;-79
2024/01/15 04:52:02;;;;;;;13.95;2.03;;;;;;;-0.17;100.00;100259.22;5081961;28;20036;-80
2024/01/15 04:54:28;;;;;;;8.10;2.20;;;;;;;-0.18;100.00;100262.69;5085910;28;20067;-79
2024/01/15 04:56:53;;;;;;;3.53;1.65;;;;;;;-0.19;100.00;100263.56;5069623;28;20064;-81
2024/01/15 04:59:19;;;;;;;7.38;1.88;;;;;;;-0.20;100.00;100257.47;5080132;28;20055;-81
2024/01/15 05:01:44;;;;;;;8.15;2.20;;;;;;;-0.20;100.00;100261.81;5086755;28;20060;-81
2024/01/15 05:04:10;;;;;;;2.22;1.23;;;;;;;-0.15;100.00;100267.94;5092257;28;20051;-80
2024/01/15 05:06:35;;;;;;;3.95;1.38;;;;;;;-0.18;100.00;100262.69;5087956;28;20041;-80
2024/01/15 05:09:01;;;;;;;4.00;1.33;;;;;;;-0.18;100.00;100249.69;5088872;28;20036;-80
2024/01/15 05:11:26;;;;;;;4.30;1.30;;;;;;;-0.17;100.00;100264.44;5072764;28;20475;-79
2024/01/15 05:13:52;;;;;;;3.78;1.40;;;;;;;-0.18;100.00;100255.75;5091988;28;20032;-79
2024/01/15 05:16:17;;;;;;;2.67;1.00;;;;;;;-0.16;100.00;100250.59;5061283;28;20036;-79
2024/01/15 05:18:43;;;;;;;2.90;1.40;;;;;;;-0.17;100.00;100254.03;5086027;28;20476;-79
2024/01/15 05:21:09;;;;;;;1.65;1.08;;;;;;;-0.14;100.00;100247.16;5073066;28;20028;-79
2024/01/15 05:23:34;;;;;;;3.58;1.30;;;;;;;-0.15;100.00;100244.50;5074831;28;20043;-80
2024/01/15 05:26:00;;;;;;;2.70;0.90;;;;;;;-0.15;100.00;100240.19;5072609;28;20047;-79
2024/01/15 05:28:25;;;;;;;3.90;1.20;;;;;;;-0.13;100.00;100238.47;5059219;28;20033;-79
2024/01/15 05:30:52;;;;;;;3.72;1.38;;;;;;;-0.13;100.00;100242.81;5062311;28;20491;-79
2024/01/15 05:33:17;;;;;;;4.22;1.35;;;;;;;-0.14;100.00;100238.47;5085393;28;20029;-79
2024/01/15 05:35:43;;;;;;;6.53;1.90;;;;;;;-0.17;100.00;100236.72;5088232;28;20581;-79
2024/01/15 05:38:08;;;;;;;6.25;1.52;;;;;;;-0.13;100.00;100241.06;5060936;28;20096;-80
2024/01/15 05:40:34;;;;;;;2.85;1.33;;;;;;;-0.14;100.00;100234.13;5090099;28;20036;-79
2024/01/15 05:42:59;;;;;;;2.88;1.40;;;;;;;-0.16;100.00;100230.63;5077645;28;20028;-79
2024/01/15 05:45:30;;;;;;;5.78;1.98;;;;;;;-0.17;100.00;100231.50;5077795;28;20064;-79
2024/01/15 05:47:55;;;;;;;3.40;1.70;;;;;;;-0.17;100.00;100247.13;5082606;28;20048;-79
2024/01/15 05:50:22;;;;;;;7.43;1.90;;;;;;;-0.18;100.00;100236.69;5083688;28;20406;-79
2024/01/15 05:52:47;;;;;;;2.38;1.75;;;;;;;-0.17;100.00;100241.00;5090810;28;20036;-79
2024/01/15 05:55:13;;;;;;;5.70;2.20;;;;;;;-0.22;100.00;100239.25;5087513;28;20032;-79
2024/01/15 05:57:38;;;;;;;4.72;2.20;;;;;;;-0.28;100.00;100238.28;5083858;28;20570;-79
2024/01/15 06:00:05;;;;;;;3.80;2.20;;;;;;;-0.26;100.00;100236.59;5083540;28;20044;-79
2024/01/15 06:02:31;;;;;;;7.47;2.25;;;;;;;-0.31;100.00;100233.06;5091466;28;20055;-80
2024/01/15 06:04:57;;;;;;;4.82;2.55;;;;;;;-0.33;100.00;100234.75;5074349;28;20041;-79
2024/01/15 06:07:22;;;;;;;5.80;2.40;;;;;;;-0.36;100.00;100224.31;5083705;28;20107;-80
2024/01/15 06:09:48;;;;;;;3.58;2.05;;;;;;;-0.43;100.00;100223.38;5067159;28;20395;-80
2024/01/15 06:12:13;;;;;;;4.68;2.10;;;;;;;-0.47;100.00;100214.66;5073014;28;20398;-80
2024/01/15 06:14:39;;;;;;;5.13;2.13;;;;;;;-0.46;100.00;100220.72;5087279;28;20110;-80
2024/01/15 06:17:04;;;;;;;4.50;2.05;;;;;;;-0.48;100.00;100212.91;5072115;28;20081;-79
2024/01/15 06:19:30;;;;;;;4.07;2.10;;;;;;;-0.48;100.00;100228.50;5065193;28;20074;-79
2024/01/15 06:21:55;;;;;;;6.53;2.45;;;;;;;-0.49;100.00;100218.97;5090963;28;20063;-80
2024/01/15 06:24:21;;;;;;;6.80;2.80;;;;;;;-0.48;100.00;100222.44;5095991;28;20046;-80
2024/01/15 06:26:47;;;;;;;7.40;3.25;;;;;;;-0.52;100.00;100211.13;5093456;28;20032;-80
2024/01/15 06:29:13;;;;;;;8.68;3.10;;;;;;;-0.53;100.00;100217.16;5088667;28;20310;-80
2024/01/15 06:31:38;;;;;;;6.18;2.97;;;;;;;-0.53;100.00;100205.91;5088391;28;20039;-81
2024/01/15 06:34:04;;;;;;;7.00;3.10;;;;;;;-0.55;100.00;100210.19;5092422;28;20139;-79
2024/01/15 06:36:29;;;;;;;7.68;3.60;;;;;;;-0.57;100.00;100211.91;5095048;28;20067;-80
2024/01/15 06:38:55;;;;;;;5.97;3.13;;;;;;;-0.57;100.00;100212.81;5076766;28;20066;-79
2024/01/15 06:41:21;;;;;;;6.75;3.40;;;;;;;-0.56;100.00;100218.88;5076860;28;20503;-87
2024/01/15 06:43:48;;;;;;;4.57;3.42;;;;;;;-0.55;100.00;100216.28;5059542;28;20044;-79
2024/01/15 06:46:20;;;;;;;10.32;3.50;;;;;;;-0.51;100.00;100214.59;5089639;28;20436;-79
2024/01/15 06:48:48;;;;;;;9.73;4.20;;;;;;;-0.52;100.00;100218.94;5057329;28;20519;-80
2024/01/15 06:51:14;;;;;;;5.35;3.53;;;;;;;-0.50;100.00;100216.34;5071297;28;20040;-82
2024/01/15 06:53:39;;;;;;;9.35;4.60;;;;;;;-0.51;100.00;100218.06;5092520;28;20039;-79
2024/01/15 06:56:05;;;;;;;8.88;4.55;;;;;;;-0.50;100.00;100213.72;5093605;28;20036;-81
2024/01/15 06:58:33;;;;;;;8.10;4.13;;;;;;;-0.48;100.00;100220.69;5091780;28;20471;-80
2024/01/15 07:00:59;;;;;;;6.80;5.05;;;;;;;-0.49;100.00;100208.56;5094953;28;20130;-80
2024/01/15 07:03:24;;;;;;;6.40;3.60;;;;;;;-0.47;100.00;100226.78;5091707;28;20127;-80
2024/01/15 07:05:50;;;;;;;5.20;3.72;;;;;;;-0.49;100.00;100221.56;5087265;28;20394;-79
2024/01/15 07:08:16;;;;;;;7.75;4.45;;;;;;;-0.49;100.00;100224.16;5094781;28;20027;-80
2024/01/15 07:10:41;;;;;;;4.57;3.85;;;;;;;-0.46;100.00;100218.13;5084826;28;20108;-79
2024/01/15 07:13:06;;;;;;;7.40;4.20;;;;;;;-0.50;100.00;100219.81;5078103;28;20066;-80
2024/01/15 07:15:32;;;;;;;4.68;4.22;;;;;;;-0.52;100.00;100208.53;5074443;28;20036;-83
2024/01/15 07:17:57;;;;;;;4.38;3.50;;;;;;;-0.50;100.00;100213.72;5078919;28;20568;-80
2024/01/15 07:20:23;;;;;;;4.10;3.15;;;;;;;-0.53;100.00;100214.56;5068279;28;20059;-83
2024/01/15 07:22:48;;;;;;;4.10;3.00;;;;;;;-0.56;100.00;100224.94;5086296;28;20153;-80
2024/01/15 07:25:15;;;;;;;4.70;3.30;;;;;;;-0.57;100.00;100212.81;5083796;28;20487;-81
2024/01/15 07:27:44;;;;;;;4.22;3.33;;;;;;;-0.57;100.00;100228.41;5084634;28;20032;-80
2024/01/15 07:30:10;;;;;;;4.25;3.72;;;;;;;-0.57;100.00;100235.31;5092686;28;20177;-80
2024/01/15 07:32:36;;;;;;;5.25;4.10;;;;;;;-0.63;100.00;100230.91;5079418;28;20443;-81
2024/01/15 07:35:01;;;;;;;5.85;4.30;;;;;;;-0.59;100.00;100235.31;5074585;28;20158;-80
2024/01/15 07:37:27;;;;;;;6.10;3.50;;;;;;;-0.59;100.00;100229.22;5074749;28;20491;-79
2024/01/15 07:39:52;;;;;;;4.63;3.75;;;;;;;-0.60;100.00;100225.75;5074364;28;20067;-82
2024/01/15 07:42:18;;;;;;;9.77;4.40;;;;;;;-0.57;100.00;100224.91;5074877;28;20040;-79
2024/01/15 07:44:44;;;;;;;5.53;4.10;;;;;;;-0.55;100.00;100226.66;5069892;28;20047;-79
2024/01/15 07:47:09;;;;;;;6.00;4.00;;;;;;;-0.54;100.00;100233.63;5074376;28;20031;-79
2024/01/15 07:49:35;;;;;;;5.68;4.38;;;;;;;-0.52;100.00;100242.34;5064202;28;20043;-79
2024/01/15 07:52:00;;;;;;;6.65;4.75;;;;;;;-0.51;100.00;100235.41;5074338;28;20051;-79
2024/01/15 07:54:26;;;;;;;8.02;4.55;;;;;;;-0.51;100.00;100225.88;5076438;28;20116;-79
2024/01/15 07:56:58;;;;;;;7.63;5.07;;;;;;;-0.49;100.00;100231.97;5075267;28;20111;-79
2024/01/15 07:59:24;;;;;;;5.78;4.53;;;;;;;-0.48;100.00;100240.63;5086826;28;20029;-79
2024/01/15 08:01:50;;;;;;;5.78;4.20;;;;;;;-0.47;100.00;100248.47;5079692;28;20055;-79
2024/01/15 08:04:16;;;;;;;5.28;3.80;;;;;;;-0.52;100.00;100252.75;5080777;28;20041;-79
2024/01/15 08:06:41;;;;;;;6.43;5.10;;;;;;;-0.47;100.00;100266.69;5074155;28;20055;-79
2024/01/15 08:09:08;;;;;;;5.32;3.67;;;;;;;-0.44;100.00;100258.91;5081182;28;20032;-79
2024/01/15 08:11:34;;;;;;;5.75;3.28;;;;;;;-0.45;100.00;100262.34;5084083;28;20035;-79
2024/01/15 08:14:00;;;;;;;6.82;3.33;;;;;;;-0.46;100.00;100262.34;5062016;28;20626;-79
2024/01/15 08:16:25;;;;;;;6.18;3.25;;;;;;;-0.46;100.00;100263.22;5076496;28;20040;-79
2024/01/15 08:18:50;;;;;;;6.43;3.80;;;;;;;-0.49;100.00;100265.78;5083495;28;20036;-79
2024/01/15 08:21:16;;;;;;;7.05;4.10;;;;;;;-0.50;100.00;100268.34;5073633;28;20377;-80
2024/01/15 08:23:42;;;;;;;3.85;3.08;;;;;;;-0.50;100.00;100270.94;5060674;28;20528;-78
2024/01/15 08:26:08;;;;;;;5.25;2.85;;;;;;;-0.52;100.00;100262.25;5062435;28;20040;-78
2024/01/15 08:28:34;;;;;;;5.72;2.90;;;;;;;-0.55;100.00;100262.22;5057378;28;20049;-79
2024/01/15 08:30:59;;;;;;;3.95;3.10;;;;;;;-0.58;100.00;100262.19;5093388;28;20172;-79
2024/01/15 08:33:25;;;;;;;3.72;3.20;;;;;;;-0.55;100.00;100264.81;5087013;28;20056;-79
2024/01/15 08:35:50;;;;;;;4.88;3.10;;;;;;;-0.52;100.00;100268.34;5075759;28;20028;-79
2024/01/15 08:38:16;;;;;;;4.07;2.70;;;;;;;-0.52;100.00;100257.03;5054326;28;20078;-79
2024/01/15 08:40:41;;;;;;;4.93;2.97;;;;;;;-0.52;100.00;100260.56;5074968;28;20098;-79
2024/01/15 08:43:07;;;;;;;5.72;3.13;;;;;;;-0.49;100.00;100262.31;5063092;28;20072;-79
2024/01/15 08:45:32;;;;;;;5.68;3.08;;;;;;;-0.47;100.00;100258.88;5092939;28;20032;-79
2024/01/15 08:47:59;;;;;;;4.15;3.10;;;;;;;-0.48;100.00;100257.13;5062105;28;20119;-79
2024/01/15 08:50:24;;;;;;;6.60;2.97;;;;;;;-0.45;100.00;100262.34;5090315;28;20026;-79
2024/01/15 08:52:53;;;;;;;4.18;3.58;;;;;;;-0.45;100.00;100264.94;5055222;28;20496;-79
2024/01/15 08:55:18;;;;;;;6.68;3.70;;;;;;;-0.43;100.00;100263.25;5087616;28;20088;-79
2024/01/15 08:57:44;;;;;;;5.00;4.05;;;;;;;-0.43;100.00;100260.66;5078625;28;20070;-80
2024/01/15 09:00:10;;;;;;;6.05;3.75;;;;;;;-0.40;100.00;100256.34;5088632;28;20039;-79
2024/01/15 09:02:35;;;;;;;5.85;3.72;;;;;;;-0.40;100.00;100254.63;5092041;28;20040;-79
2024/01/15 09:05:04;;;;;;;4.88;3.70;;;;;;;-0.38;100.00;100254.66;5037943;28;20052;-79
2024/01/15 09:07:29;;;;;;;4.78;3.35;;;;;;;-0.35;100.00;100254.69;5083771;28;20090;-79
2024/01/15 09:09:55;;;;;;;5.03;3.55;;;;;;;-0.33;100.00;100259.03;5074227;28;20115;-79
2024/01/15 09:12:22;;;;;;;6.95;4.00;;;;;;;-0.30;100.00;100264.28;5091876;28;20461;-79
2024/01/15 09:14:50;;;;;;;6.25;3.33;;;;;;;-0.31;100.00;100267.75;5080540;28;20040;-78
2024/01/15 09:17:16;;;;;;;5.25;3.00;;;;;;;-0.30;100.00;100268.63;5091853;28;20364;-78
2024/01/15 09:19:41;;;;;;;6.75;3.80;;;;;;;-0.29;100.00;100266.03;5091577;28;20122;-81
2024/01/15 09:22:07;;;;;;;5.95;2.80;;;;;;;-0.28;100.00;100254.78;5053588;28;20055;-79
2024/01/15 09:24:32;;;;;;;6.22;3.15;;;;;;;-0.24;100.00;100255.69;5049011;28;20100;-80
2024/01/15 09:26:58;;;;;;;4.97;2.70;;;;;;;-0.20;100.00;100247.06;5077807;28;20051;-80
2024/01/15 09:29:23;;;;;;;5.35;2.65;;;;;;;-0.19;100.00;100253.16;5076730;28;20044;-80
2024/01/15 09:31:50;;;;;;;5.38;2.58;;;;;;;-0.18;100.00;100245.34;5088300;28;20032;-80
2024/01/15 09:34:16;;;;;;;3.67;2.30;;;;;;;-0.18;100.00;100247.09;5088079;28;20036;-80
2024/01/15 09:36:42;;;;;;;5.53;2.30;;;;;;;-0.17;100.00;100251.41;5062655;28;20471;-80
2024/01/15 09:39:08;;;;;;;4.88;1.88;;;;;;;-0.17;100.00;100254.03;5081984;28;20454;-80
2024/01/15 09:41:38;;;;;;;4.18;2.20;;;;;;;-0.14;100.00;100251.50;5082503;28;20029;-80
2024/01/15 09:44:05;;;;;;;6.55;1.83;;;;;;;-0.12;100.00;100265.41;5078350;28;20032;-82
2024/01/15 09:46:31;;;;;;;3.97;1.70;;;;;;;-0.09;100.00;100263.69;5079181;28;20036;-80
2024/01/15 09:48:58;;;;;;;4.03;1.70;;;;;;;-0.07;100.00;100272.41;5079026;28;20040;-80
2024/01/15 09:51:24;;;;;;;4.45;1.98;;;;;;;-0.05;100.00;100265.47;5072011;28;20025;-81
2024/01/15 09:53:50;;;;;;;11.93;3.03;;;;;;;-0.04;100.00;100277.63;5058650;28;20050;-81
2024/01/15 09:56:16;;;;;;;8.02;1.88;;;;;;;-0.07;100.00;100275.00;5067188;28;20509;-86
2024/01/15 09:58:42;;;;;;;6.10;1.92;;;;;;;-0.10;100.00;100266.25;5031371;28;20033;-84
2024/01/15 10:01:09;;;;;;;6.00;1.63;;;;;;;-0.05;100.00;100269.78;5052158;28;20040;-84
2024/01/15 10:03:34;;;;;;;5.45;1.83;;;;;;;0.04;100.00;100272.50;5053029;28;20433;-83
2024/01/15 10:06:02;;;;;;;8.88;2.13;;;;;;;0.03;100.00;100269.91;5059867;28;20162;-86
2024/01/15 10:08:28;;;;;;;5.82;2.05;;;;;;;0.07;100.00;100282.94;5057329;28;20039;-84
2024/01/15 10:10:53;;;;;;;7.38;2.40;;;;;;;0.06;100.00;100269.94;5062480;28;20043;-87
2024/01/15 10:13:20;;;;;;;10.65;2.42;;;;;;;0.17;100.00;100277.03;5035950;28;20032;-84
2024/01/15 10:15:49;;;;;;;6.05;1.80;;;;;;;0.28;100.00;100281.47;5086544;28;20141;-84
2024/01/15 10:18:15;;;;;;;8.00;2.10;;;;;;;0.36;100.00;100279.81;5059273;28;20063;-84
2024/01/15 10:20:42;;;;;;;7.05;2.15;;;;;;;0.40;100.00;100276.41;5071827;28;20472;-84
2024/01/15 10:23:08;;;;;;;4.25;1.92;;;;;;;0.39;100.00;100300.69;5076345;28;20032;-85
2024/01/15 10:25:35;;;;;;;10.45;2.17;;;;;;;0.31;100.00;100289.31;5063450;28;20406;-83
2024/01/15 10:28:03;;;;;;;6.72;2.03;;;;;;;0.23;100.00;100294.44;5071519;28;20066;-84
2024/01/15 10:30:28;;;;;;;6.15;1.50;;;;;;;0.18;100.00;100291.78;5071809;28;20025;-83
2024/01/15 10:33:01;;;;;;;7.97;2.28;;;;;;;0.19;100.00;100287.44;5073565;28;20034;-86
2024/01/15 10:35:28;;;;;;;5.70;1.65;;;;;;;0.09;100.00;100283.84;5090611;28;20047;-81
2024/01/15 10:37:54;;;;;;;4.53;1.60;;;;;;;0.13;100.00;100284.78;5067229;28;20059;-83
2024/01/15 10:40:23;;;;;;;5.53;1.92;;;;;;;0.02;100.00;100275.94;5084027;28;20161;-83
2024/01/15 10:42:49;;;;;;;8.20;2.38;;;;;;;0.02;100.00;100275.94;5072839;28;20055;-84
2024/01/15 10:45:14;;;;;;;6.35;1.90;;;;;;;-0.02;100.00;100275.06;5047731;28;20066;-84
2024/01/15 10:47:41;;;;;;;7.32;2.35;;;;;;;-0.04;100.00;100266.34;5037389;28;20053;-85
2024/01/15 10:50:07;;;;;;;6.93;2.20;;;;;;;-0.02;100.00;100275.06;5072390;28;20514;-85
2024/01/15 10:52:38;;;;;;;7.22;3.03;;;;;;;0.02;100.00;100275.94;5057684;28;20094;-84
2024/01/15 10:55:05;;;;;;;8.32;3.00;;;;;;;0.11;100.00;100284.75;5045190;28;20471;-84
2024/01/15 10:57:30;;;;;;;6.20;2.30;;;;;;;0.13;100.00;100275.22;5047655;28;20383;-85
2024/01/15 10:59:56;;;;;;;6.97;2.70;;;;;;;0.15;100.00;100280.47;5060315;28;20065;-85
2024/01/15 11:02:22;;;;;;;9.52;3.17;;;;;;;0.17;100.00;100276.13;5060794;28;20032;-85
2024/01/15 11:04:47;;;;;;;9.35;2.90;;;;;;;0.21;100.00;100268.38;5085329;28;20029;-83
2024/01/15 11:07:13;;;;;;;10.90;2.75;;;;;;;0.30;100.00;100257.19;5033306;28;20041;-83
2024/01/15 11:09:39;;;;;;;5.70;2.05;;;;;;;0.36;100.00;100261.59;5059069;28;20067;-83
2024/01/15 11:12:13;;;;;;;10.48;2.53;;;;;;;0.50;100.00;100267.81;5057057;28;20111;-84